Kezdőlap
METAR-TAF:

METAR-TAF

Repülőterek :

The Pas, Manitoba, Kanada

földrajzi szélesség: 53-58N, földrajzi hosszúság: 101-06W, magasság: 271 m

Jelenlegi meteorológiai megfigyelések

A jelentés 1 órával és 16 perccel ezelõtt készült, 05:00 UTC
Délkeleti szél 5 kt
Hőmérséklet 14°C
Páratartalom 77%
Légköri nyomás 1016 hPa
Látótávolság: 14.5 km
Derült ég

METAR: CYQD 220500Z AUTO 13005KT 9SM CLR 14/10 A3001 RMK SLP169

Idő: 01:16 (06:16 UTC)

Előrejelzés

A jelentés 5 órával és 36 perccel ezelõtt készült, 00:40 UTC
Az előrejelzés 22-én 01 óra UTC és 22-én 13 óra UTC között érvényes
Nyugat-északnyugati szél 6 kt
Látótávolság: 10 km
Szórványos felhőzet 10000 lábon
22-én 0400 órától UTC szerint
Különbözõ irányokból fújó szél 3 kt
Látótávolság: 10 km
Derült ég

TAF: CYQD 220040Z 2201/2213 30006KT P6SM SCT100 FM220400 VRB03KT P6SM SKC RMK FCST BASED ON AUTO OBS. NXT FCST BY 220700Z

Meteorológiai megfigyelések és előrejelzések több, mint 4000 repülőtéren (METAR és TAF jelentéseket).

A térképen piros és sárga pontok jelzik az elérhető meteorológiai állomásokat.

Mozgassa az egeret a pont fölött, hogy megjelenjen az állomás neve.

Azután kattintson az időjárási megfigyelések és előrejelzések megtekintéséhez.

A térkép megváltoztatása: kattintson a fekete keresztel jelölt zöld gombra ráközelítéshez, a vonallal jelölt zöld gombra távolításhoz, vagy a zöld nyilakra a szomszédos térképek eléréséhez.


METAR-TAF: